createdAt,value
2023-03-27T00:02:01.786Z,0.29
2023-03-27T00:05:06.385Z,0.22
2023-03-27T00:08:10.493Z,0.17
2023-03-27T00:11:15.130Z,0.17
2023-03-27T00:14:20.288Z,0.17
2023-03-27T00:17:24.299Z,0.11
2023-03-27T00:20:28.267Z,0.11
2023-03-27T00:23:33.664Z,0.03
2023-03-27T00:26:40.779Z,0.04
2023-03-27T00:29:46.339Z,-0.02
2023-03-27T00:32:49.923Z,-0.07
2023-03-27T00:35:54.350Z,-0.13
2023-03-27T00:38:57.997Z,-0.04
2023-03-27T00:42:01.454Z,0.02
2023-03-27T00:45:08.154Z,0.19
2023-03-27T00:48:11.825Z,0.43
2023-03-27T00:51:16.764Z,0.56
2023-03-27T00:54:30.113Z,0.81
2023-03-27T00:57:34.318Z,0.80
2023-03-27T01:00:39.532Z,0.77
2023-03-27T01:03:47.599Z,0.84
2023-03-27T01:06:55.200Z,0.71
2023-03-27T01:09:58.987Z,0.67
2023-03-27T01:13:23.812Z,0.48
2023-03-27T01:16:39.461Z,0.41
2023-03-27T01:20:42.514Z,0.28
2023-03-27T01:24:49.946Z,0.29
2023-03-27T01:28:22.748Z,0.25
2023-03-27T01:31:49.234Z,0.26
2023-03-27T01:35:26.816Z,0.27
2023-03-27T01:39:27.059Z,0.25
2023-03-27T01:42:39.732Z,0.20
2023-03-27T01:45:52.717Z,0.09
2023-03-27T01:49:03.916Z,0.12
2023-03-27T01:52:16.285Z,0.16
2023-03-27T01:55:26.688Z,0.11
2023-03-27T01:58:46.436Z,0.10
2023-03-27T02:02:00.295Z,0.08
2023-03-27T02:05:12.034Z,0.18
2023-03-27T02:08:22.299Z,0.25
2023-03-27T02:11:33.675Z,0.46
2023-03-27T02:14:43.277Z,0.75
2023-03-27T02:17:56.973Z,0.71
2023-03-27T02:21:02.358Z,0.76
2023-03-27T02:24:09.901Z,0.80
2023-03-27T02:27:25.065Z,0.88
2023-03-27T02:30:38.893Z,0.95
2023-03-27T02:34:02.006Z,0.85
2023-03-27T02:37:21.420Z,0.83
2023-03-27T02:40:42.779Z,0.81
2023-03-27T02:43:59.576Z,0.80
2023-03-27T02:47:13.087Z,0.84
2023-03-27T02:50:23.731Z,0.80
2023-03-27T02:53:32.065Z,0.76
2023-03-27T02:56:43.633Z,0.71
2023-03-27T02:59:54.191Z,0.69
2023-03-27T03:03:09.734Z,0.61
2023-03-27T03:06:14.347Z,0.50
2023-03-27T03:09:19.137Z,0.44
2023-03-27T03:12:23.228Z,0.52
2023-03-27T03:15:27.153Z,0.43
2023-03-27T03:18:32.106Z,0.37
2023-03-27T03:21:36.279Z,0.33
2023-03-27T03:24:41.990Z,0.31
2023-03-27T03:27:45.889Z,0.28
2023-03-27T03:30:51.586Z,0.23
2023-03-27T03:33:56.651Z,0.29
2023-03-27T03:37:00.310Z,0.22
2023-03-27T03:40:11.991Z,0.24
2023-03-27T03:43:15.623Z,0.26
2023-03-27T03:46:19.231Z,0.25
2023-03-27T03:49:24.132Z,0.08
2023-03-27T03:52:27.631Z,0.02
2023-03-27T03:55:31.139Z,0.15
2023-03-27T03:58:35.283Z,0.35
2023-03-27T04:01:40.816Z,0.28
2023-03-27T04:04:46.672Z,0.25
2023-03-27T04:07:50.803Z,0.15
2023-03-27T04:10:54.626Z,0.15
2023-03-27T04:13:58.355Z,0.12
2023-03-27T04:17:01.903Z,0.04
2023-03-27T04:20:08.462Z,0.01
2023-03-27T04:23:11.956Z,-0.02
2023-03-27T04:26:16.262Z,0.03
2023-03-27T04:29:22.361Z,0.01
2023-03-27T04:32:26.377Z,-0.02
2023-03-27T04:35:33.500Z,0.01
2023-03-27T04:38:39.271Z,0.03
2023-03-27T04:41:45.864Z,0.02
2023-03-27T04:44:49.298Z,-0.03
2023-03-27T04:47:53.046Z,-0.02
2023-03-27T04:50:58.882Z,0.02
2023-03-27T04:54:04.913Z,-0.04
2023-03-27T04:57:09.968Z,-0.18
2023-03-27T05:00:19.009Z,-0.21
2023-03-27T05:03:24.119Z,-0.33
2023-03-27T05:06:29.252Z,-0.34
2023-03-27T05:09:32.705Z,-0.35
2023-03-27T05:12:36.296Z,-0.36
2023-03-27T05:15:39.995Z,-0.37
2023-03-27T05:18:46.336Z,-0.35
2023-03-27T05:21:51.456Z,-0.21
2023-03-27T05:24:57.121Z,-0.18
2023-03-27T05:28:01.536Z,-0.18
2023-03-27T05:31:05.741Z,-0.07
2023-03-27T05:34:09.358Z,-0.03
2023-03-27T05:37:14.301Z,-0.04
2023-03-27T05:40:22.044Z,-0.05
2023-03-27T05:43:26.425Z,0.08
2023-03-27T05:46:30.040Z,-0.01
2023-03-27T05:49:34.440Z,-0.06
2023-03-27T05:52:39.898Z,-0.02
2023-03-27T05:55:44.054Z,0.01
2023-03-27T05:58:47.523Z,0.01
2023-03-27T06:01:51.229Z,0.14
2023-03-27T06:04:56.307Z,0.16
2023-03-27T06:08:02.209Z,0.20
2023-03-27T06:11:10.934Z,0.22
2023-03-27T06:14:14.464Z,0.14
2023-03-27T06:17:18.028Z,0.03
2023-03-27T06:20:22.795Z,-0.09
2023-03-27T06:23:28.420Z,-0.19
2023-03-27T06:26:31.972Z,-0.03
2023-03-27T06:29:37.402Z,0.14
2023-03-27T06:32:46.165Z,0.11
2023-03-27T06:35:53.276Z,0.06
2023-03-27T06:38:58.914Z,0.11
2023-03-27T06:42:02.381Z,0.04
2023-03-27T06:45:07.226Z,0.02
2023-03-27T06:48:15.342Z,0.03
2023-03-27T06:51:23.371Z,0.01
2023-03-27T06:54:28.615Z,0.15
2023-03-27T06:57:32.354Z,0.20
2023-03-27T07:00:39.171Z,0.27
2023-03-27T07:03:42.768Z,0.34
2023-03-27T07:06:49.136Z,0.34
2023-03-27T07:09:53.988Z,0.47
2023-03-27T07:12:57.456Z,0.51
2023-03-27T07:16:00.905Z,0.77
2023-03-27T07:19:05.489Z,0.80
2023-03-27T07:22:08.930Z,1.18
2023-03-27T07:25:14.019Z,1.53
2023-03-27T07:28:18.584Z,1.25
2023-03-27T07:31:35.202Z,1.37
2023-03-27T07:34:45.603Z,1.13
2023-03-27T07:37:49.120Z,1.14
2023-03-27T07:40:54.079Z,1.30
2023-03-27T07:43:57.963Z,1.43
2023-03-27T07:47:02.030Z,1.30
2023-03-27T07:50:10.021Z,1.83
2023-03-27T07:53:33.909Z,2.09
2023-03-27T07:56:39.195Z,2.33
2023-03-27T07:59:42.830Z,2.19
2023-03-27T08:02:47.331Z,1.92
2023-03-27T08:06:00.111Z,1.65
2023-03-27T08:09:05.516Z,1.99
2023-03-27T08:12:10.555Z,2.49
2023-03-27T08:15:14.799Z,2.75
2023-03-27T08:18:18.336Z,3.19
2023-03-27T08:21:22.728Z,3.23
2023-03-27T08:24:26.745Z,3.21
2023-03-27T08:27:32.482Z,3.43
2023-03-27T08:30:36.096Z,3.58
2023-03-27T08:33:41.945Z,3.88
2023-03-27T08:36:45.615Z,4.22
2023-03-27T08:39:49.067Z,4.32
2023-03-27T08:42:57.878Z,3.36
2023-03-27T08:46:09.272Z,2.70
2023-03-27T08:49:18.757Z,2.26
2023-03-27T08:52:26.365Z,1.91
2023-03-27T08:55:41.529Z,1.97
2023-03-27T08:58:47.650Z,2.44
2023-03-27T09:02:04.363Z,2.70
2023-03-27T09:05:18.806Z,2.83
2023-03-27T09:08:37.430Z,2.68
2023-03-27T09:11:57.091Z,2.65
2023-03-27T09:15:10.944Z,2.40
2023-03-27T09:18:23.111Z,2.45
2023-03-27T09:21:41.242Z,2.81
2023-03-27T09:24:49.938Z,2.92
2023-03-27T09:27:54.650Z,3.08
2023-03-27T09:31:01.758Z,3.24
2023-03-27T09:34:11.300Z,3.39
2023-03-27T09:37:18.079Z,3.57
2023-03-27T09:40:30.900Z,3.72
2023-03-27T09:43:42.539Z,3.91
2023-03-27T09:46:52.892Z,3.71
2023-03-27T09:50:04.232Z,4.08
2023-03-27T09:53:13.464Z,4.40
2023-03-27T09:56:17.774Z,4.55
2023-03-27T09:59:27.496Z,4.76
2023-03-27T10:02:32.804Z,4.34
2023-03-27T10:05:36.957Z,4.71
2023-03-27T10:08:46.606Z,4.67
2023-03-27T10:11:50.892Z,4.91
2023-03-27T10:14:54.503Z,5.57
2023-03-27T10:18:00.078Z,5.39
2023-03-27T10:21:13.374Z,5.33
2023-03-27T10:24:27.532Z,5.77
2023-03-27T10:27:35.979Z,5.80
2023-03-27T10:30:40.550Z,5.63
2023-03-27T10:33:45.697Z,6.22
2023-03-27T10:36:50.786Z,5.77
2023-03-27T10:39:56.439Z,5.33
2023-03-27T10:43:06.400Z,4.63
2023-03-27T10:46:15.691Z,4.04
2023-03-27T10:49:33.420Z,4.62
2023-03-27T10:52:50.874Z,4.83
2023-03-27T10:56:10.830Z,4.63
2023-03-27T10:59:31.025Z,4.20
2023-03-27T11:02:50.105Z,3.52
2023-03-27T11:05:55.430Z,3.38
2023-03-27T11:09:06.380Z,3.17
2023-03-27T11:12:14.583Z,3.47
2023-03-27T11:15:27.542Z,4.19
2023-03-27T11:18:38.411Z,4.05
2023-03-27T11:21:50.970Z,3.45
2023-03-27T11:25:02.836Z,3.25
2023-03-27T11:28:22.262Z,3.74
2023-03-27T11:31:39.358Z,3.93
2023-03-27T11:34:53.019Z,4.05
2023-03-27T11:38:05.257Z,4.55
2023-03-27T11:41:15.355Z,5.04
2023-03-27T11:44:19.314Z,5.15
2023-03-27T11:47:47.826Z,4.98
2023-03-27T11:51:02.055Z,5.29
2023-03-27T11:54:26.251Z,5.26
2023-03-27T11:57:29.795Z,4.51
2023-03-27T12:00:42.649Z,3.35
2023-03-27T12:04:16.553Z,3.20
2023-03-27T12:07:42.129Z,3.15
2023-03-27T12:10:56.999Z,3.23
2023-03-27T12:14:41.118Z,3.66
2023-03-27T12:18:01.751Z,4.27
2023-03-27T12:21:29.319Z,4.71
2023-03-27T12:24:57.057Z,4.64
2023-03-27T12:28:22.155Z,4.92
2023-03-27T12:31:51.538Z,5.52
2023-03-27T12:35:00.679Z,5.31
2023-03-27T12:38:09.541Z,5.32
2023-03-27T12:41:26.014Z,5.36
2023-03-27T12:44:33.346Z,5.69
2023-03-27T12:47:36.903Z,5.80
2023-03-27T12:50:46.945Z,5.69
2023-03-27T12:53:59.337Z,5.88
2023-03-27T12:57:08.941Z,5.70
2023-03-27T13:00:25.795Z,5.36
2023-03-27T13:04:17.016Z,4.15
2023-03-27T13:07:33.231Z,2.81
2023-03-27T13:10:59.329Z,2.75
2023-03-27T13:14:45.082Z,3.00
2023-03-27T13:18:07.208Z,3.39
2023-03-27T13:21:23.975Z,4.24
2023-03-27T13:24:53.628Z,4.84
2023-03-27T13:28:28.399Z,4.97
2023-03-27T13:32:01.833Z,3.66
2023-03-27T13:35:34.272Z,2.82
2023-03-27T13:39:06.327Z,2.69
2023-03-27T13:42:16.097Z,3.14
2023-03-27T13:45:34.329Z,3.80
2023-03-27T13:49:08.023Z,3.90
2023-03-27T13:52:54.981Z,3.78
2023-03-27T13:56:21.030Z,4.07
2023-03-27T14:00:01.672Z,4.66
2023-03-27T14:03:58.486Z,5.21
2023-03-27T14:07:44.361Z,5.62
2023-03-27T14:11:34.687Z,5.67
2023-03-27T14:15:18.052Z,5.57
2023-03-27T14:19:26.567Z,5.60
2023-03-27T14:22:40.982Z,5.86
2023-03-27T14:25:53.799Z,5.48
2023-03-27T14:29:00.861Z,5.64
2023-03-27T14:32:07.303Z,5.62
2023-03-27T14:35:29.117Z,5.63
2023-03-27T14:38:37.455Z,5.26
2023-03-27T14:41:48.330Z,5.42
2023-03-27T14:44:54.009Z,5.41
2023-03-27T14:48:03.842Z,6.01
2023-03-27T14:51:13.619Z,5.76
2023-03-27T14:54:27.079Z,6.09
2023-03-27T14:57:31.869Z,5.83
2023-03-27T15:00:39.138Z,5.84
2023-03-27T15:03:46.449Z,6.14
2023-03-27T15:06:56.002Z,5.12
2023-03-27T15:10:22.458Z,4.91
2023-03-27T15:13:27.768Z,5.17
2023-03-27T15:16:35.944Z,5.60
2023-03-27T15:19:45.674Z,5.56
2023-03-27T15:23:01.110Z,5.54
2023-03-27T15:26:16.781Z,5.35
2023-03-27T15:29:32.318Z,5.31
2023-03-27T15:32:50.221Z,5.25
2023-03-27T15:35:57.506Z,5.06
2023-03-27T15:39:04.195Z,5.10
2023-03-27T15:42:16.044Z,5.25
2023-03-27T15:45:42.288Z,5.15
2023-03-27T15:48:51.285Z,5.14
2023-03-27T15:51:55.650Z,4.91
2023-03-27T15:55:00.822Z,4.64
2023-03-27T15:58:22.235Z,4.66
2023-03-27T16:01:33.754Z,4.61
2023-03-27T16:04:46.809Z,4.52
2023-03-27T16:07:50.657Z,4.61
2023-03-27T16:10:55.729Z,4.52
2023-03-27T16:14:01.321Z,4.38
2023-03-27T16:17:20.605Z,4.31
2023-03-27T16:20:40.003Z,4.32
2023-03-27T16:23:44.396Z,4.26
2023-03-27T16:26:48.593Z,4.10
2023-03-27T16:29:54.829Z,2.91
2023-03-27T16:32:58.299Z,2.28
2023-03-27T16:36:02.102Z,2.21
2023-03-27T16:39:07.093Z,2.26
2023-03-27T16:42:21.733Z,2.38
2023-03-27T16:45:28.536Z,2.27
2023-03-27T16:48:32.015Z,2.35
2023-03-27T16:51:35.874Z,2.42
2023-03-27T16:54:39.563Z,2.49
2023-03-27T16:57:43.527Z,2.65
2023-03-27T17:00:48.488Z,2.78
2023-03-27T17:03:52.266Z,2.80
2023-03-27T17:06:56.493Z,2.75
2023-03-27T17:10:00.773Z,2.71
2023-03-27T17:13:04.306Z,2.71
2023-03-27T17:16:10.032Z,2.71
2023-03-27T17:19:14.774Z,2.86
2023-03-27T17:22:18.471Z,2.86
2023-03-27T17:25:22.019Z,2.94
2023-03-27T17:28:25.507Z,2.95
2023-03-27T17:31:31.381Z,2.96
2023-03-27T17:34:34.948Z,2.54
2023-03-27T17:37:38.425Z,1.99
2023-03-27T17:40:42.652Z,1.86
2023-03-27T17:43:47.441Z,1.83
2023-03-27T17:46:52.304Z,1.93
2023-03-27T17:49:55.832Z,1.93
2023-03-27T17:52:59.407Z,1.96
2023-03-27T17:56:02.984Z,2.12
2023-03-27T17:59:06.537Z,2.14
2023-03-27T18:02:18.624Z,2.36
2023-03-27T18:05:22.315Z,2.63
2023-03-27T18:08:25.949Z,2.79
2023-03-27T18:11:30.008Z,2.70
2023-03-27T18:14:33.524Z,2.71
2023-03-27T18:17:39.450Z,2.82
2023-03-27T18:20:43.956Z,2.92
2023-03-27T18:24:01.340Z,3.00
2023-03-27T18:27:05.172Z,2.89
2023-03-27T18:30:13.292Z,2.86
2023-03-27T18:33:18.320Z,2.77
2023-03-27T18:36:22.124Z,2.72
2023-03-27T18:39:25.822Z,2.63
2023-03-27T18:42:29.537Z,2.58
2023-03-27T18:45:33.104Z,2.56
2023-03-27T18:48:37.984Z,2.50
2023-03-27T18:51:41.809Z,2.50
2023-03-27T18:54:45.340Z,2.48
2023-03-27T18:57:48.901Z,2.45
2023-03-27T19:00:52.925Z,2.44
2023-03-27T19:03:57.840Z,2.42
2023-03-27T19:07:01.461Z,2.40
2023-03-27T19:10:06.513Z,2.39
2023-03-27T19:13:10.385Z,2.34
2023-03-27T19:16:15.299Z,2.35
2023-03-27T19:19:20.664Z,2.28
2023-03-27T19:22:24.267Z,2.26
2023-03-27T19:25:28.430Z,2.21
2023-03-27T19:28:32.056Z,2.30
2023-03-27T19:31:36.159Z,2.31
2023-03-27T19:34:43.117Z,2.44
2023-03-27T19:37:46.963Z,2.46
2023-03-27T19:40:51.092Z,2.40
2023-03-27T19:43:54.795Z,2.51
2023-03-27T19:46:58.521Z,2.54
2023-03-27T19:50:03.504Z,2.49
2023-03-27T19:53:09.003Z,2.22
2023-03-27T19:56:13.016Z,2.31
2023-03-27T19:59:29.917Z,2.26
2023-03-27T20:02:34.626Z,2.12
2023-03-27T20:05:41.354Z,1.85
2023-03-27T20:08:45.242Z,1.60
2023-03-27T20:11:48.825Z,1.63
2023-03-27T20:15:03.574Z,1.66
2023-03-27T20:18:15.207Z,1.71
2023-03-27T20:21:20.375Z,1.72
2023-03-27T20:24:23.829Z,1.80
2023-03-27T20:27:27.470Z,1.83
2023-03-27T20:30:32.252Z,1.81
2023-03-27T20:33:35.882Z,1.61
2023-03-27T20:36:40.901Z,1.53
2023-03-27T20:39:47.116Z,1.30
2023-03-27T20:43:03.133Z,1.02
2023-03-27T20:46:10.809Z,0.71
2023-03-27T20:49:37.657Z,0.57
2023-03-27T20:52:46.471Z,0.72
2023-03-27T20:55:59.384Z,0.70
2023-03-27T20:59:03.807Z,0.70
2023-03-27T21:02:07.916Z,0.58
2023-03-27T21:05:11.793Z,0.58
2023-03-27T21:08:18.143Z,0.59
2023-03-27T21:11:22.247Z,0.60
2023-03-27T21:14:25.984Z,0.58
2023-03-27T21:17:29.553Z,0.68
2023-03-27T21:20:35.042Z,0.75
2023-03-27T21:23:40.624Z,0.89
2023-03-27T21:26:44.473Z,0.93
2023-03-27T21:29:47.949Z,0.91
2023-03-27T21:32:51.530Z,0.93
2023-03-27T21:35:55.332Z,1.01
2023-03-27T21:39:00.582Z,1.00
2023-03-27T21:42:04.158Z,1.12
2023-03-27T21:45:09.664Z,1.26
2023-03-27T21:48:13.388Z,1.16
2023-03-27T21:51:16.946Z,1.22
2023-03-27T21:54:21.851Z,1.25
2023-03-27T21:57:26.346Z,1.30
2023-03-27T22:00:29.860Z,1.32
2023-03-27T22:03:33.345Z,1.32
2023-03-27T22:06:36.941Z,1.37
2023-03-27T22:09:41.811Z,1.44
2023-03-27T22:12:45.376Z,1.48
2023-03-27T22:15:48.844Z,1.45
2023-03-27T22:18:52.461Z,1.32
2023-03-27T22:21:56.397Z,1.31
2023-03-27T22:25:01.234Z,1.25
2023-03-27T22:28:04.746Z,1.24
2023-03-27T22:31:09.380Z,1.23
2023-03-27T22:34:12.920Z,1.25
2023-03-27T22:37:16.753Z,1.23
2023-03-27T22:40:21.623Z,1.20
2023-03-27T22:43:25.548Z,1.12
2023-03-27T22:46:29.802Z,1.07
2023-03-27T22:49:33.404Z,0.99
2023-03-27T22:52:36.933Z,0.89
2023-03-27T22:55:41.839Z,0.81
2023-03-27T22:58:45.455Z,0.67
2023-03-27T23:01:49.079Z,0.65
2023-03-27T23:04:52.667Z,0.64
2023-03-27T23:07:56.196Z,0.55
2023-03-27T23:11:03.694Z,0.49
2023-03-27T23:14:07.422Z,0.48
2023-03-27T23:17:11.275Z,0.49
2023-03-27T23:20:14.807Z,0.46
2023-03-27T23:23:18.300Z,0.48
2023-03-27T23:26:23.191Z,0.54
2023-03-27T23:29:26.765Z,0.49
2023-03-27T23:32:33.543Z,0.52
2023-03-27T23:35:37.513Z,0.47
2023-03-27T23:38:42.608Z,0.46
2023-03-27T23:41:47.439Z,0.47
2023-03-27T23:44:50.936Z,0.46
2023-03-27T23:47:54.414Z,0.50
2023-03-27T23:50:59.184Z,0.60
2023-03-27T23:54:02.673Z,0.67
2023-03-27T23:57:07.899Z,0.67
